createdAt,value
2022-08-19T00:00:19.318Z,55.70
2022-08-19T00:02:20.985Z,55.80
2022-08-19T00:04:25.483Z,55.70
2022-08-19T00:06:28.385Z,55.80
2022-08-19T00:08:30.060Z,55.80
2022-08-19T00:10:31.773Z,55.70
2022-08-19T00:12:33.988Z,55.90
2022-08-19T00:14:41.821Z,55.80
2022-08-19T00:16:44.570Z,55.80
2022-08-19T00:18:46.288Z,55.90
2022-08-19T00:20:47.978Z,55.90
2022-08-19T00:22:49.924Z,55.80
2022-08-19T00:24:51.593Z,55.80
2022-08-19T00:26:53.536Z,56.00
2022-08-19T00:28:55.444Z,56.00
2022-08-19T00:30:57.418Z,55.90
2022-08-19T00:32:59.512Z,55.90
2022-08-19T00:35:01.560Z,56.00
2022-08-19T00:37:03.251Z,55.90
2022-08-19T00:39:04.998Z,56.00
2022-08-19T00:41:07.047Z,56.00
2022-08-19T00:43:10.870Z,56.00
2022-08-19T00:45:14.245Z,56.10
2022-08-19T00:47:16.149Z,56.00
2022-08-19T00:49:27.642Z,56.00
2022-08-19T00:51:31.105Z,56.00
2022-08-19T00:53:34.949Z,56.00
2022-08-19T00:55:38.034Z,56.00
2022-08-19T00:57:41.491Z,56.00
2022-08-19T00:59:59.450Z,56.00
2022-08-19T01:02:04.509Z,56.20
2022-08-19T01:04:06.254Z,56.20
2022-08-19T01:06:08.099Z,56.00
2022-08-19T01:08:10.363Z,56.00
2022-08-19T01:10:13.924Z,56.10
2022-08-19T01:12:16.666Z,56.00
2022-08-19T01:14:18.689Z,56.10
2022-08-19T01:16:21.713Z,56.20
2022-08-19T01:18:24.598Z,56.20
2022-08-19T01:20:26.780Z,56.10
2022-08-19T01:22:33.672Z,56.00
2022-08-19T01:24:35.806Z,56.00
2022-08-19T01:26:48.003Z,56.10
2022-08-19T01:28:53.648Z,56.10
2022-08-19T01:30:57.888Z,56.00
2022-08-19T01:33:00.875Z,56.00
2022-08-19T01:35:03.608Z,56.00
2022-08-19T01:37:09.521Z,55.90
2022-08-19T01:39:12.357Z,56.00
2022-08-19T01:41:14.064Z,55.90
2022-08-19T01:43:16.057Z,56.00
2022-08-19T01:45:18.260Z,56.00
2022-08-19T01:47:20.530Z,56.00
2022-08-19T01:49:23.157Z,56.00
2022-08-19T01:51:24.874Z,55.90
2022-08-19T01:53:26.701Z,55.90
2022-08-19T01:55:40.806Z,56.00
2022-08-19T01:57:45.318Z,56.00
2022-08-19T01:59:47.098Z,56.00
2022-08-19T02:01:48.831Z,56.00
2022-08-19T02:03:50.586Z,56.00
2022-08-19T02:06:00.484Z,56.10
2022-08-19T02:08:02.269Z,56.10
2022-08-19T02:10:06.630Z,56.10
2022-08-19T02:12:10.715Z,56.20
2022-08-19T02:14:12.389Z,56.30
2022-08-19T02:16:14.081Z,56.20
2022-08-19T02:18:15.834Z,56.20
2022-08-19T02:20:18.066Z,56.30
2022-08-19T02:22:19.704Z,56.30
2022-08-19T02:24:21.395Z,56.40
2022-08-19T02:26:24.378Z,56.40
2022-08-19T02:28:26.043Z,56.40
2022-08-19T02:30:27.894Z,56.30
2022-08-19T02:32:31.376Z,56.30
2022-08-19T02:34:33.107Z,56.40
2022-08-19T02:36:34.797Z,56.40
2022-08-19T02:38:37.944Z,56.50
2022-08-19T02:40:39.616Z,56.50
2022-08-19T02:42:41.851Z,56.40
2022-08-19T02:44:43.562Z,56.20
2022-08-19T02:46:46.519Z,56.30
2022-08-19T02:48:49.552Z,56.30
2022-08-19T02:50:56.067Z,56.30
2022-08-19T02:52:58.356Z,56.20
2022-08-19T02:55:00.999Z,56.20
2022-08-19T02:57:02.728Z,56.20
2022-08-19T02:59:11.807Z,56.20
2022-08-19T03:01:20.392Z,56.20
2022-08-19T03:03:22.317Z,56.40
2022-08-19T03:05:28.379Z,56.40
2022-08-19T03:07:47.461Z,56.40
2022-08-19T03:09:49.145Z,56.40
2022-08-19T03:11:52.684Z,56.40
2022-08-19T03:13:55.243Z,56.40
2022-08-19T03:15:56.984Z,56.50
2022-08-19T03:17:58.659Z,56.40
2022-08-19T03:20:01.291Z,56.50
2022-08-19T03:22:03.553Z,57.10
2022-08-19T03:24:06.906Z,56.60
2022-08-19T03:26:15.849Z,56.60
2022-08-19T03:28:18.843Z,56.60
2022-08-19T03:30:20.539Z,56.60
2022-08-19T03:32:32.809Z,56.60
2022-08-19T03:34:37.046Z,56.60
2022-08-19T03:36:39.080Z,56.70
2022-08-19T03:38:42.278Z,56.60
2022-08-19T03:40:44.064Z,56.50
2022-08-19T03:42:49.253Z,56.70
2022-08-19T03:44:51.515Z,56.70
2022-08-19T03:46:56.179Z,56.70
2022-08-19T03:48:58.988Z,56.70
2022-08-19T03:51:01.444Z,56.80
2022-08-19T03:53:03.108Z,56.80
2022-08-19T03:55:04.968Z,56.90
2022-08-19T03:57:07.104Z,56.80
2022-08-19T03:59:11.712Z,57.50
2022-08-19T04:01:15.848Z,56.80
2022-08-19T04:03:19.592Z,56.90
2022-08-19T04:05:21.543Z,56.80
2022-08-19T04:07:29.277Z,56.90
2022-08-19T04:09:31.256Z,57.00
2022-08-19T04:11:43.789Z,57.00
2022-08-19T04:13:45.875Z,56.90
2022-08-19T04:15:47.662Z,56.90
2022-08-19T04:17:49.386Z,57.10
2022-08-19T04:19:51.565Z,57.10
2022-08-19T04:21:54.510Z,57.10
2022-08-19T04:23:56.868Z,57.10
2022-08-19T04:25:58.683Z,57.20
2022-08-19T04:28:00.418Z,57.30
2022-08-19T04:30:02.501Z,57.10
2022-08-19T04:32:09.202Z,57.10
2022-08-19T04:34:12.361Z,57.20
2022-08-19T04:36:21.411Z,57.30
2022-08-19T04:38:26.034Z,57.30
2022-08-19T04:40:46.153Z,57.30
2022-08-19T04:42:47.865Z,57.30
2022-08-19T04:44:49.611Z,57.40
2022-08-19T04:46:53.815Z,57.30
2022-08-19T04:48:57.655Z,57.30
2022-08-19T04:50:59.522Z,57.30
2022-08-19T04:53:01.222Z,57.40
2022-08-19T04:55:03.207Z,57.40
2022-08-19T04:57:07.477Z,57.40
2022-08-19T04:59:09.579Z,57.50
2022-08-19T05:01:15.587Z,57.50
2022-08-19T05:03:17.976Z,57.50
2022-08-19T05:05:20.709Z,57.70
2022-08-19T05:07:22.425Z,57.60
2022-08-19T05:09:24.169Z,57.70
2022-08-19T05:11:27.590Z,57.80
2022-08-19T05:13:29.392Z,57.80
2022-08-19T05:15:31.517Z,57.80
2022-08-19T05:17:37.746Z,57.80
2022-08-19T05:19:59.057Z,57.80
2022-08-19T05:22:19.990Z,57.90
2022-08-19T05:24:22.559Z,57.80
2022-08-19T05:26:26.883Z,57.80
2022-08-19T05:28:28.565Z,57.80
2022-08-19T05:30:46.893Z,57.80
2022-08-19T05:32:49.455Z,57.80
2022-08-19T05:34:51.246Z,58.50
2022-08-19T05:36:57.887Z,57.90
2022-08-19T05:38:59.577Z,57.80
2022-08-19T05:41:01.408Z,57.80
2022-08-19T05:43:04.468Z,58.00
2022-08-19T05:45:06.552Z,57.90
2022-08-19T05:47:09.322Z,58.00
2022-08-19T05:49:11.002Z,58.70
2022-08-19T05:51:13.061Z,58.20
2022-08-19T05:53:19.708Z,58.10
2022-08-19T05:55:21.802Z,58.00
2022-08-19T05:57:24.044Z,58.10
2022-08-19T05:59:25.767Z,58.10
2022-08-19T06:01:27.787Z,58.30
2022-08-19T06:03:29.519Z,58.80
2022-08-19T06:05:31.648Z,58.70
2022-08-19T06:07:33.468Z,58.10
2022-08-19T06:09:36.137Z,58.10
2022-08-19T06:11:45.587Z,58.20
2022-08-19T06:13:51.491Z,58.10
2022-08-19T06:15:53.159Z,58.20
2022-08-19T06:17:54.927Z,58.20
2022-08-19T06:19:56.876Z,58.20
2022-08-19T06:21:59.419Z,58.20
2022-08-19T06:24:01.370Z,58.10
2022-08-19T06:26:03.096Z,58.20
2022-08-19T06:28:15.072Z,58.40
2022-08-19T06:30:17.292Z,58.40
2022-08-19T06:32:19.921Z,58.30
2022-08-19T06:34:21.780Z,58.30
2022-08-19T06:36:28.491Z,58.30
2022-08-19T06:38:30.275Z,58.20
2022-08-19T06:40:32.202Z,58.20
2022-08-19T06:42:34.070Z,58.20
2022-08-19T06:44:43.137Z,58.10
2022-08-19T06:46:45.418Z,58.30
2022-08-19T06:48:55.710Z,58.30
2022-08-19T06:50:57.414Z,58.20
2022-08-19T06:53:01.499Z,58.20
2022-08-19T06:55:07.268Z,58.10
2022-08-19T06:57:14.206Z,58.00
2022-08-19T06:59:18.669Z,58.20
2022-08-19T07:01:21.224Z,58.20
2022-08-19T07:03:22.905Z,58.10
2022-08-19T07:05:24.559Z,58.10
2022-08-19T07:07:26.340Z,57.90
2022-08-19T07:09:28.199Z,58.00
2022-08-19T07:11:33.497Z,58.20
2022-08-19T07:13:39.065Z,57.90
2022-08-19T07:15:40.763Z,57.80
2022-08-19T07:17:44.188Z,57.80
2022-08-19T07:19:46.503Z,57.80
2022-08-19T07:21:50.526Z,57.80
2022-08-19T07:23:52.783Z,57.90
2022-08-19T07:25:54.553Z,58.00
2022-08-19T07:27:56.658Z,58.00
2022-08-19T07:29:59.775Z,58.00
2022-08-19T07:32:02.359Z,58.00
2022-08-19T07:34:07.799Z,58.10
2022-08-19T07:36:12.195Z,58.00
2022-08-19T07:38:14.385Z,58.00
2022-08-19T07:40:16.429Z,57.90
2022-08-19T07:42:21.727Z,57.80
2022-08-19T07:44:23.929Z,57.90
2022-08-19T07:46:25.677Z,58.00
2022-08-19T07:48:28.204Z,57.90
2022-08-19T07:50:29.928Z,57.90
2022-08-19T07:52:31.619Z,57.90
2022-08-19T07:54:37.124Z,57.80
2022-08-19T07:56:39.089Z,57.90
2022-08-19T07:58:42.563Z,57.90
2022-08-19T08:00:45.011Z,57.90
2022-08-19T08:02:46.683Z,57.90
2022-08-19T08:05:07.366Z,57.90
2022-08-19T08:07:31.620Z,57.90
2022-08-19T08:09:35.126Z,57.90
2022-08-19T08:11:42.788Z,57.80
2022-08-19T08:13:44.675Z,57.80
2022-08-19T08:15:46.383Z,57.80
2022-08-19T08:17:51.635Z,57.80
2022-08-19T08:19:53.695Z,57.60
2022-08-19T08:21:59.333Z,57.80
2022-08-19T08:26:07.741Z,57.70
2022-08-19T08:28:11.401Z,57.80
2022-08-19T08:30:23.881Z,57.70
2022-08-19T08:32:25.831Z,57.70
2022-08-19T08:34:27.502Z,57.80
2022-08-19T08:36:29.188Z,57.80
2022-08-19T08:38:38.356Z,57.60
2022-08-19T08:40:46.657Z,57.60
2022-08-19T08:42:53.014Z,57.70
2022-08-19T08:44:59.208Z,57.50
2022-08-19T08:47:03.720Z,57.60
2022-08-19T08:49:26.093Z,57.30
2022-08-19T08:51:34.422Z,57.30
2022-08-19T08:53:41.408Z,57.30
2022-08-19T08:55:45.203Z,57.30
2022-08-19T08:57:59.920Z,57.30
2022-08-19T09:00:05.357Z,57.30
2022-08-19T09:02:08.011Z,57.20
2022-08-19T09:04:12.854Z,57.20
2022-08-19T09:06:32.652Z,57.30
2022-08-19T09:08:40.515Z,57.20
2022-08-19T09:10:55.261Z,57.20
2022-08-19T09:13:20.394Z,57.10
2022-08-19T09:15:33.365Z,57.20
2022-08-19T09:17:36.412Z,57.20
2022-08-19T09:19:49.542Z,57.10
2022-08-19T09:21:51.429Z,57.10
2022-08-19T09:23:53.310Z,57.10
2022-08-19T09:25:54.993Z,57.00
2022-08-19T09:28:03.114Z,57.10
2022-08-19T09:30:08.402Z,57.10
2022-08-19T09:32:26.426Z,56.90
2022-08-19T09:34:30.220Z,57.00
2022-08-19T09:36:35.271Z,56.90
2022-08-19T09:38:37.686Z,56.80
2022-08-19T09:40:45.834Z,56.80
2022-08-19T09:42:49.710Z,56.80
2022-08-19T09:44:52.190Z,56.90
2022-08-19T09:46:53.884Z,56.70
2022-08-19T09:48:55.828Z,56.80
2022-08-19T09:51:03.551Z,56.80
2022-08-19T09:53:08.510Z,56.80
2022-08-19T09:55:10.988Z,56.70
2022-08-19T09:57:12.938Z,56.70
2022-08-19T09:59:14.610Z,56.70
2022-08-19T10:01:17.591Z,56.60
2022-08-19T10:03:19.307Z,56.70
2022-08-19T10:05:42.345Z,56.40
2022-08-19T10:07:44.409Z,56.50
2022-08-19T10:09:46.112Z,56.50
2022-08-19T10:11:54.618Z,56.60
2022-08-19T10:13:57.369Z,56.60
2022-08-19T10:16:29.176Z,56.50
2022-08-19T10:18:35.066Z,56.40
2022-08-19T10:20:36.729Z,56.40
2022-08-19T10:22:39.820Z,56.20
2022-08-19T10:24:42.196Z,56.10
2022-08-19T10:26:45.736Z,55.80
2022-08-19T10:28:49.087Z,55.70
2022-08-19T10:30:50.902Z,55.60
2022-08-19T10:32:52.654Z,55.80
2022-08-19T10:34:57.231Z,56.00
2022-08-19T10:37:01.250Z,55.80
2022-08-19T10:39:06.260Z,55.90
2022-08-19T10:41:16.158Z,55.40
2022-08-19T10:43:18.957Z,55.60
2022-08-19T10:45:23.218Z,55.70
2022-08-19T10:47:26.292Z,55.70
2022-08-19T10:49:53.590Z,55.60
2022-08-19T10:52:18.802Z,55.60
2022-08-19T10:54:32.185Z,55.60
2022-08-19T10:56:54.810Z,55.60
2022-08-19T10:58:59.465Z,55.00
2022-08-19T11:01:01.320Z,55.00
2022-08-19T11:03:03.065Z,54.90
2022-08-19T11:05:12.370Z,55.10
2022-08-19T11:07:14.545Z,55.00
2022-08-19T11:09:17.495Z,54.60
2022-08-19T11:11:19.401Z,54.60
2022-08-19T11:13:21.086Z,55.00
2022-08-19T11:15:22.955Z,54.80
2022-08-19T11:17:24.634Z,54.40
2022-08-19T11:19:26.369Z,54.00
2022-08-19T11:21:35.427Z,54.00
2022-08-19T11:23:37.113Z,53.90
2022-08-19T11:25:39.528Z,54.00
2022-08-19T11:27:45.627Z,54.10
2022-08-19T11:29:47.349Z,53.90
2022-08-19T11:31:50.242Z,54.00
2022-08-19T11:33:52.259Z,53.80
2022-08-19T11:35:55.083Z,54.00
2022-08-19T11:38:02.223Z,54.00
2022-08-19T11:40:04.661Z,53.80
2022-08-19T11:42:27.167Z,53.40
2022-08-19T11:44:31.174Z,53.50
2022-08-19T11:46:32.947Z,52.80
2022-08-19T11:48:34.939Z,52.90
2022-08-19T11:50:36.608Z,52.80
2022-08-19T11:52:38.301Z,53.10
2022-08-19T11:54:40.096Z,52.50
2022-08-19T11:56:42.133Z,52.70
2022-08-19T11:58:44.519Z,52.40
2022-08-19T12:00:46.273Z,52.80
2022-08-19T12:02:47.962Z,52.20
2022-08-19T12:04:49.971Z,52.30
2022-08-19T12:06:51.733Z,52.40
2022-08-19T12:08:53.766Z,51.90
2022-08-19T12:10:55.440Z,52.10
2022-08-19T12:12:58.849Z,52.20
2022-08-19T12:15:00.911Z,52.00
2022-08-19T12:17:03.201Z,52.00
2022-08-19T12:19:05.836Z,51.80
2022-08-19T12:21:07.605Z,51.50
2022-08-19T12:23:12.833Z,51.70
2022-08-19T12:25:15.088Z,52.00
2022-08-19T12:27:32.293Z,51.50
2022-08-19T12:29:38.725Z,51.00
2022-08-19T12:31:42.245Z,50.90
2022-08-19T12:33:44.924Z,50.60
2022-08-19T12:35:47.478Z,50.80
2022-08-19T12:37:56.669Z,50.60
2022-08-19T12:39:59.732Z,50.80
2022-08-19T12:42:01.528Z,50.90
2022-08-19T12:44:03.370Z,51.20
2022-08-19T12:46:07.707Z,50.80
2022-08-19T12:48:33.332Z,51.30
2022-08-19T12:50:34.970Z,51.30
2022-08-19T12:52:41.921Z,50.70
2022-08-19T12:54:44.140Z,50.80
2022-08-19T12:56:45.864Z,50.50
2022-08-19T12:58:50.316Z,50.60
2022-08-19T13:00:54.905Z,50.50
2022-08-19T13:02:56.633Z,50.90
2022-08-19T13:04:59.448Z,51.00
2022-08-19T13:07:01.172Z,50.90
2022-08-19T13:09:03.294Z,49.80
2022-08-19T13:11:11.806Z,50.40
2022-08-19T13:13:13.765Z,50.10
2022-08-19T13:15:18.400Z,50.20
2022-08-19T13:17:21.293Z,49.40
2022-08-19T13:19:24.480Z,49.00
2022-08-19T13:21:27.405Z,49.50
2022-08-19T13:23:29.087Z,50.30
2022-08-19T13:25:30.899Z,49.30
2022-08-19T13:27:32.736Z,49.60
2022-08-19T13:29:53.171Z,49.40
2022-08-19T13:32:13.641Z,49.60
2022-08-19T13:34:26.159Z,49.90
2022-08-19T13:36:32.911Z,49.10
2022-08-19T13:38:34.606Z,49.80
2022-08-19T13:40:36.741Z,49.50
2022-08-19T13:42:41.182Z,48.50
2022-08-19T13:44:42.832Z,49.00
2022-08-19T13:46:48.063Z,49.00
2022-08-19T13:48:49.804Z,48.70
2022-08-19T13:50:51.605Z,48.50
2022-08-19T13:52:54.105Z,48.50
2022-08-19T13:54:55.930Z,48.60
2022-08-19T13:56:57.623Z,48.20
2022-08-19T13:58:59.460Z,48.40
2022-08-19T14:01:01.535Z,48.50
2022-08-19T14:03:08.656Z,48.00
2022-08-19T14:05:12.125Z,48.20
2022-08-19T14:07:13.887Z,48.30
2022-08-19T14:09:15.617Z,48.10
2022-08-19T14:11:17.903Z,46.90
2022-08-19T14:13:21.087Z,46.90
2022-08-19T14:15:24.090Z,47.80
2022-08-19T14:17:25.947Z,47.70
2022-08-19T14:19:30.160Z,47.70
2022-08-19T14:21:31.895Z,47.70
2022-08-19T14:23:33.764Z,47.50
2022-08-19T14:25:35.776Z,47.80
2022-08-19T14:27:38.202Z,47.40
2022-08-19T14:29:39.952Z,46.90
2022-08-19T14:31:42.332Z,46.90
2022-08-19T14:33:44.009Z,47.00
2022-08-19T14:35:45.783Z,46.80
2022-08-19T14:37:47.519Z,46.60
2022-08-19T14:39:49.396Z,46.80
2022-08-19T14:41:51.530Z,46.60
2022-08-19T14:43:53.854Z,46.20
2022-08-19T14:45:57.867Z,46.50
2022-08-19T14:48:00.932Z,46.10
2022-08-19T14:50:05.135Z,46.30
2022-08-19T14:52:07.473Z,46.00
2022-08-19T14:54:09.149Z,46.50
2022-08-19T14:56:11.978Z,46.20
2022-08-19T14:58:29.733Z,46.70
2022-08-19T15:00:32.194Z,46.20
2022-08-19T15:02:35.512Z,47.10
2022-08-19T15:04:37.505Z,46.50
2022-08-19T15:06:39.705Z,46.50
2022-08-19T15:08:42.043Z,46.20
2022-08-19T15:10:43.748Z,46.30
2022-08-19T15:12:48.658Z,45.90
2022-08-19T15:14:56.258Z,46.70
2022-08-19T15:16:58.612Z,45.50
2022-08-19T15:19:00.878Z,45.40
2022-08-19T15:21:03.314Z,45.30
2022-08-19T15:23:05.096Z,45.10
2022-08-19T15:25:07.858Z,45.20
2022-08-19T15:27:10.094Z,45.20
2022-08-19T15:29:15.350Z,45.10
2022-08-19T15:31:27.973Z,45.20
2022-08-19T15:33:36.388Z,45.30
2022-08-19T15:35:40.804Z,45.20
2022-08-19T15:37:42.748Z,44.80
2022-08-19T15:39:44.517Z,44.80
2022-08-19T15:41:46.497Z,44.70
2022-08-19T15:43:48.930Z,44.60
2022-08-19T15:45:50.621Z,44.80
2022-08-19T15:47:52.323Z,44.90
2022-08-19T15:49:57.699Z,44.60
2022-08-19T15:52:01.932Z,44.70
2022-08-19T15:54:04.275Z,45.00
2022-08-19T15:56:06.111Z,44.70
2022-08-19T15:58:29.872Z,44.50
2022-08-19T16:00:52.720Z,44.30
2022-08-19T16:03:13.299Z,44.50
2022-08-19T16:05:37.022Z,44.10
2022-08-19T16:07:39.040Z,44.30
2022-08-19T16:09:40.728Z,44.70
2022-08-19T16:11:45.616Z,44.90
2022-08-19T16:13:51.847Z,44.10
2022-08-19T16:15:56.998Z,44.00
2022-08-19T16:17:58.921Z,44.10
2022-08-19T16:20:01.091Z,44.00
2022-08-19T16:22:02.823Z,43.90
2022-08-19T16:24:06.709Z,44.00
2022-08-19T16:26:09.412Z,45.00
2022-08-19T16:28:11.465Z,44.10
2022-08-19T16:30:13.276Z,44.20
2022-08-19T16:32:15.041Z,44.30
2022-08-19T16:34:16.710Z,44.20
2022-08-19T16:36:18.555Z,44.10
2022-08-19T16:38:20.230Z,44.10
2022-08-19T16:40:22.051Z,44.20
2022-08-19T16:42:23.879Z,44.40
2022-08-19T16:44:27.436Z,44.40
2022-08-19T16:46:31.669Z,44.30
2022-08-19T16:48:35.059Z,44.60
2022-08-19T16:50:49.282Z,44.10
2022-08-19T16:52:51.708Z,44.30
2022-08-19T16:54:53.481Z,44.60
2022-08-19T16:56:56.073Z,44.70
2022-08-19T16:58:59.778Z,44.70
2022-08-19T17:01:04.259Z,44.60
2022-08-19T17:03:08.195Z,44.60
2022-08-19T17:05:11.725Z,44.70
2022-08-19T17:07:13.446Z,44.70
2022-08-19T17:09:16.088Z,44.70
2022-08-19T17:11:19.084Z,44.60
2022-08-19T17:13:21.782Z,44.60
2022-08-19T17:15:23.515Z,44.50
2022-08-19T17:17:28.870Z,45.20
2022-08-19T17:19:30.930Z,44.40
2022-08-19T17:21:33.382Z,44.60
2022-08-19T17:23:42.213Z,44.60
2022-08-19T17:25:44.314Z,44.60
2022-08-19T17:27:46.053Z,44.80
2022-08-19T17:29:48.067Z,44.80
2022-08-19T17:31:49.855Z,44.80
2022-08-19T17:33:51.714Z,44.70
2022-08-19T17:35:53.854Z,44.70
2022-08-19T17:37:55.631Z,44.70
2022-08-19T17:39:57.451Z,44.80
2022-08-19T17:42:02.643Z,44.90
2022-08-19T17:44:05.078Z,44.90
2022-08-19T17:46:06.885Z,44.90
2022-08-19T17:48:08.880Z,45.10
2022-08-19T17:50:12.737Z,45.10
2022-08-19T17:52:14.476Z,45.00
2022-08-19T17:54:18.880Z,45.00
2022-08-19T17:56:21.410Z,45.00
2022-08-19T17:58:23.139Z,45.00
2022-08-19T18:00:25.408Z,45.00
2022-08-19T18:02:28.840Z,45.10
2022-08-19T18:04:32.778Z,45.00
2022-08-19T18:06:36.550Z,45.00
2022-08-19T18:08:41.026Z,45.00
2022-08-19T18:10:42.691Z,45.20
2022-08-19T18:12:44.562Z,45.20
2022-08-19T18:14:46.304Z,45.30
2022-08-19T18:16:48.001Z,45.30
2022-08-19T18:18:49.719Z,45.20
2022-08-19T18:20:51.773Z,45.20
2022-08-19T18:22:53.458Z,45.40
2022-08-19T18:24:56.943Z,45.40
2022-08-19T18:26:58.604Z,45.30
2022-08-19T18:29:00.268Z,45.50
2022-08-19T18:31:03.875Z,45.30
2022-08-19T18:33:13.765Z,45.40
2022-08-19T18:35:17.191Z,45.30
2022-08-19T18:37:18.946Z,45.40
2022-08-19T18:39:39.646Z,45.50
2022-08-19T18:42:04.635Z,45.50
2022-08-19T18:44:25.134Z,45.70
2022-08-19T18:46:48.758Z,45.80
2022-08-19T18:49:05.666Z,45.80
2022-08-19T18:51:08.813Z,46.10
2022-08-19T18:53:10.583Z,46.30
2022-08-19T18:55:12.568Z,46.20
2022-08-19T18:57:14.768Z,46.60
2022-08-19T18:59:21.081Z,46.70
2022-08-19T19:01:26.258Z,46.90
2022-08-19T19:03:28.021Z,47.00
2022-08-19T19:05:29.767Z,47.20
2022-08-19T19:07:31.551Z,47.30
2022-08-19T19:09:33.409Z,47.20
2022-08-19T19:11:37.184Z,47.40
2022-08-19T19:13:46.501Z,47.40
2022-08-19T19:15:48.221Z,47.60
2022-08-19T19:17:50.068Z,47.60
2022-08-19T19:19:51.752Z,47.40
2022-08-19T19:21:53.899Z,47.60
2022-08-19T19:23:55.629Z,47.70
2022-08-19T19:25:57.747Z,47.50
2022-08-19T19:27:59.453Z,47.40
2022-08-19T19:30:01.281Z,47.50
2022-08-19T19:32:07.203Z,47.60
2022-08-19T19:34:15.491Z,47.60
2022-08-19T19:36:30.576Z,47.50
2022-08-19T19:38:32.350Z,47.60
2022-08-19T19:40:34.092Z,47.70
2022-08-19T19:42:35.947Z,47.70
2022-08-19T19:44:38.935Z,47.60
2022-08-19T19:46:42.634Z,47.60
2022-08-19T19:48:45.109Z,47.60
2022-08-19T19:50:53.979Z,47.60
2022-08-19T19:52:58.723Z,47.60
2022-08-19T19:55:01.332Z,48.30
2022-08-19T19:57:03.656Z,47.60
2022-08-19T19:59:05.449Z,47.60
2022-08-19T20:01:12.288Z,47.70
2022-08-19T20:03:14.107Z,47.80
2022-08-19T20:05:15.915Z,47.90
2022-08-19T20:07:17.711Z,47.80
2022-08-19T20:09:19.991Z,47.90
2022-08-19T20:11:26.700Z,48.00
2022-08-19T20:13:28.689Z,48.00
2022-08-19T20:15:32.099Z,48.00
2022-08-19T20:17:34.023Z,48.00
2022-08-19T20:19:37.465Z,48.10
2022-08-19T20:21:43.829Z,48.20
2022-08-19T20:23:45.501Z,48.00
2022-08-19T20:26:19.302Z,48.10
2022-08-19T20:28:32.319Z,48.10
2022-08-19T20:30:34.213Z,48.30
2022-08-19T20:32:35.962Z,48.30
2022-08-19T20:34:38.100Z,48.30
2022-08-19T20:36:40.967Z,48.40
2022-08-19T20:38:42.782Z,48.40
2022-08-19T20:40:44.525Z,48.30
2022-08-19T20:42:46.256Z,48.40
2022-08-19T20:44:49.216Z,48.40
2022-08-19T20:46:54.556Z,48.30
2022-08-19T20:48:59.016Z,48.30
2022-08-19T20:51:01.305Z,48.50
2022-08-19T20:53:10.244Z,48.40
2022-08-19T20:55:12.549Z,48.40
2022-08-19T20:57:14.229Z,48.60
2022-08-19T20:59:15.920Z,48.60
2022-08-19T21:01:18.010Z,48.50
2022-08-19T21:03:22.228Z,48.40
2022-08-19T21:05:27.288Z,48.50
2022-08-19T21:07:38.947Z,48.40
2022-08-19T21:09:42.032Z,48.30
2022-08-19T21:11:44.101Z,48.50
2022-08-19T21:13:45.777Z,48.50
2022-08-19T21:15:47.547Z,48.60
2022-08-19T21:17:49.399Z,48.70
2022-08-19T21:19:51.159Z,48.50
2022-08-19T21:21:52.891Z,48.80
2022-08-19T21:23:54.826Z,48.60
2022-08-19T21:25:57.455Z,48.80
2022-08-19T21:27:59.400Z,48.70
2022-08-19T21:30:01.094Z,49.50
2022-08-19T21:32:03.920Z,48.90
2022-08-19T21:34:05.961Z,49.50
2022-08-19T21:36:07.869Z,49.00
2022-08-19T21:38:09.554Z,49.00
2022-08-19T21:40:11.710Z,49.00
2022-08-19T21:42:14.366Z,49.00
2022-08-19T21:44:16.076Z,49.20
2022-08-19T21:46:17.760Z,49.20
2022-08-19T21:48:19.450Z,49.30
2022-08-19T21:50:22.461Z,49.30
2022-08-19T21:52:26.988Z,49.30
2022-08-19T21:54:30.387Z,49.40
2022-08-19T21:56:40.047Z,49.30
2022-08-19T21:58:41.776Z,49.30
2022-08-19T22:00:43.637Z,49.10
2022-08-19T22:02:47.027Z,49.10
2022-08-19T22:04:51.361Z,49.10
2022-08-19T22:06:53.030Z,49.40
2022-08-19T22:08:57.522Z,49.40
2022-08-19T22:10:59.274Z,49.30
2022-08-19T22:13:01.402Z,49.30
2022-08-19T22:15:04.476Z,49.50
2022-08-19T22:17:06.200Z,49.40
2022-08-19T22:19:09.573Z,49.40
2022-08-19T22:21:12.295Z,49.30
2022-08-19T22:23:14.346Z,49.50
2022-08-19T22:25:31.612Z,49.60
2022-08-19T22:27:33.726Z,49.50
2022-08-19T22:29:36.482Z,49.70
2022-08-19T22:31:39.281Z,49.60
2022-08-19T22:33:41.522Z,49.70
2022-08-19T22:35:44.296Z,49.80
2022-08-19T22:37:46.042Z,49.70
2022-08-19T22:39:47.775Z,49.70
2022-08-19T22:41:49.490Z,49.70
2022-08-19T22:43:51.206Z,49.80
2022-08-19T22:45:53.687Z,49.80
2022-08-19T22:47:55.692Z,49.80
2022-08-19T22:49:57.487Z,49.90
2022-08-19T22:52:18.108Z,50.00
2022-08-19T22:54:19.811Z,50.00
2022-08-19T22:56:21.647Z,50.00
2022-08-19T22:58:27.974Z,50.20
2022-08-19T23:00:30.812Z,50.10
2022-08-19T23:02:34.545Z,50.20
2022-08-19T23:04:36.296Z,50.20
2022-08-19T23:06:41.441Z,50.20
2022-08-19T23:08:44.186Z,50.20
2022-08-19T23:10:48.470Z,50.80
2022-08-19T23:12:50.330Z,50.10
2022-08-19T23:14:53.385Z,50.10
2022-08-19T23:16:58.869Z,50.20
2022-08-19T23:19:00.938Z,50.10
2022-08-19T23:21:02.613Z,50.30
2022-08-19T23:23:05.718Z,50.30
2022-08-19T23:25:09.854Z,50.50
2022-08-19T23:27:29.832Z,50.60
2022-08-19T23:29:50.465Z,50.70
2022-08-19T23:31:52.225Z,50.60
2022-08-19T23:33:53.910Z,50.60
2022-08-19T23:35:58.831Z,50.70
2022-08-19T23:38:01.092Z,50.80
2022-08-19T23:40:04.684Z,50.80
2022-08-19T23:42:11.418Z,50.90
2022-08-19T23:44:14.699Z,50.70
2022-08-19T23:46:27.433Z,50.80
2022-08-19T23:48:34.482Z,50.90
2022-08-19T23:50:36.947Z,50.90
2022-08-19T23:52:46.093Z,51.00
2022-08-19T23:54:47.861Z,51.00
2022-08-19T23:56:49.911Z,51.00
2022-08-19T23:58:51.597Z,51.10
